Time;durP1;ratioP1;P1;durP2;ratioP2;P2;SDS_P1;SDS_P2;PMS_P1;PMS_P2;Temp;Humidity;BMP_temperature;BMP_pressure;BME280_temperature;BME280_humidity;BME280_pressure;Samples;Min_cycle;Max_cycle;Signal;HPM_P1;HPM_P2
2023/07/13 00:01:04;;;;;;;3.30;2.73;;;22.00;48.50;;;;;;10523487;28;20785;-67
2023/07/13 00:06:07;;;;;;;2.67;2.47;;;22.00;47.80;;;;;;10526678;28;20780;-67
2023/07/13 00:11:12;;;;;;;3.53;2.63;;;22.00;48.00;;;;;;10527737;27;20267;-67
2023/07/13 00:16:16;;;;;;;2.90;2.70;;;22.00;49.00;;;;;;10528537;28;20853;-67
2023/07/13 00:21:19;;;;;;;3.90;2.80;;;22.10;48.50;;;;;;10528069;27;20231;-66
2023/07/13 00:26:24;;;;;;;3.27;2.80;;;22.10;48.50;;;;;;10525032;27;20227;-67
2023/07/13 00:31:27;;;;;;;2.77;2.57;;;22.20;49.40;;;;;;10524885;27;20238;-67
2023/07/13 00:36:32;;;;;;;3.00;2.43;;;22.20;48.60;;;;;;10526711;27;20258;-67
2023/07/13 00:41:37;;;;;;;3.20;2.60;;;22.20;49.00;;;;;;10530696;28;20280;-67
2023/07/13 00:46:40;;;;;;;4.70;2.70;;;22.30;49.30;;;;;;10520884;28;20835;-67
2023/07/13 00:51:50;;;;;;;3.37;2.77;;;22.50;48.70;;;;;;10530884;28;20305;-67
2023/07/13 00:56:58;;;;;;;2.70;2.60;;;22.50;50.00;;;;;;10532268;27;20739;-67
2023/07/13 01:02:02;;;;;;;3.30;2.50;;;22.60;49.60;;;;;;10529428;28;20252;-67
2023/07/13 01:07:07;;;;;;;4.43;2.80;;;22.60;48.60;;;;;;10528895;28;20262;-68
2023/07/13 01:12:13;;;;;;;2.60;2.40;;;22.60;49.20;;;;;;10532846;28;20231;-68
2023/07/13 01:17:17;;;;;;;3.20;2.90;;;22.60;49.40;;;;;;10522104;28;20273;-67
2023/07/13 01:22:25;;;;;;;4.13;2.70;;;22.60;48.60;;;;;;10527884;28;20350;-67
2023/07/13 01:27:28;;;;;;;3.97;3.00;;;22.70;49.30;;;;;;10527392;28;20643;-67
2023/07/13 01:32:33;;;;;;;3.03;2.83;;;22.70;48.60;;;;;;10524698;28;20224;-68
2023/07/13 01:37:38;;;;;;;3.40;3.10;;;22.70;48.60;;;;;;10540173;28;20223;-67
2023/07/13 01:42:42;;;;;;;4.13;3.20;;;22.70;49.30;;;;;;10538173;28;20963;-67
2023/07/13 01:47:45;;;;;;;4.40;3.43;;;22.70;48.50;;;;;;10540277;28;20220;-67
2023/07/13 01:52:50;;;;;;;3.97;3.57;;;22.80;48.70;;;;;;10533138;27;20238;-67
2023/07/13 01:57:53;;;;;;;3.60;3.30;;;22.80;49.30;;;;;;10535462;28;20742;-67
2023/07/13 02:02:56;;;;;;;5.57;3.47;;;22.80;48.50;;;;;;10532619;27;20261;-67
2023/07/13 02:08:01;;;;;;;3.73;3.43;;;22.90;48.50;;;;;;10534626;27;20226;-67
2023/07/13 02:13:05;;;;;;;5.07;3.57;;;22.90;48.80;;;;;;10526709;28;20878;-67
2023/07/13 02:18:08;;;;;;;4.63;4.17;;;22.90;48.40;;;;;;10539066;27;20238;-67
2023/07/13 02:23:13;;;;;;;5.40;4.50;;;22.80;48.20;;;;;;10535379;28;20228;-67
2023/07/13 02:28:16;;;;;;;5.33;4.33;;;22.80;49.20;;;;;;10530598;27;20293;-67
2023/07/13 02:33:19;;;;;;;4.73;4.33;;;22.70;48.80;;;;;;10530996;28;21084;-67
2023/07/13 02:38:24;;;;;;;5.00;4.33;;;22.60;48.90;;;;;;10527465;27;20957;-67
2023/07/13 02:43:27;;;;;;;5.00;4.50;;;22.50;49.40;;;;;;10533549;28;20223;-67
2023/07/13 02:48:31;;;;;;;5.30;4.80;;;22.60;49.00;;;;;;10526852;27;20834;-68
2023/07/13 02:53:36;;;;;;;5.47;5.07;;;22.60;48.90;;;;;;10535815;27;20676;-67
2023/07/13 02:58:39;;;;;;;7.30;5.27;;;22.50;49.50;;;;;;10534767;27;20227;-67
2023/07/13 03:03:42;;;;;;;5.97;5.07;;;22.40;49.20;;;;;;10542685;27;20311;-67
2023/07/13 03:08:48;;;;;;;5.63;5.13;;;22.30;49.30;;;;;;10532780;27;20835;-73
2023/07/13 03:13:53;;;;;;;5.80;5.03;;;22.30;50.50;;;;;;10528264;27;20492;-73
2023/07/13 03:18:56;;;;;;;6.00;5.40;;;22.30;49.70;;;;;;10529545;27;20251;-73
2023/07/13 03:24:01;;;;;;;5.77;5.23;;;22.20;49.80;;;;;;10529066;28;20228;-73
2023/07/13 03:29:04;;;;;;;5.27;4.87;;;22.20;50.70;;;;;;10532162;28;20319;-73
2023/07/13 03:34:07;;;;;;;5.33;4.83;;;22.20;50.10;;;;;;10532003;27;20258;-72
2023/07/13 03:39:12;;;;;;;6.53;4.70;;;22.20;50.00;;;;;;10536702;27;20640;-73
2023/07/13 03:44:17;;;;;;;5.03;4.53;;;22.20;50.70;;;;;;10525165;27;20277;-73
2023/07/13 03:49:20;;;;;;;4.90;4.50;;;22.20;50.70;;;;;;10524340;27;20231;-72
2023/07/13 03:54:25;;;;;;;4.90;4.03;;;22.20;49.70;;;;;;10532146;27;20299;-73
2023/07/13 03:59:28;;;;;;;4.57;3.80;;;22.20;50.00;;;;;;10536984;27;20231;-72
2023/07/13 04:04:31;;;;;;;4.43;3.80;;;22.20;49.30;;;;;;10527466;27;20243;-74
2023/07/13 04:09:36;;;;;;;3.97;3.50;;;22.20;49.40;;;;;;10528385;28;20356;-73
2023/07/13 04:14:39;;;;;;;3.97;3.50;;;22.20;49.40;;;;;;10525656;27;20861;-73
2023/07/13 04:19:43;;;;;;;4.23;3.43;;;22.20;48.70;;;;;;10527453;27;20599;-74
2023/07/13 04:24:47;;;;;;;3.73;3.07;;;22.20;48.30;;;;;;10521584;27;20302;-74
2023/07/13 04:29:51;;;;;;;3.90;2.77;;;22.30;48.40;;;;;;10534360;27;20232;-73
2023/07/13 04:34:55;;;;;;;3.43;3.07;;;22.30;48.10;;;;;;10532776;27;20653;-74
2023/07/13 04:40:00;;;;;;;4.10;3.00;;;22.20;47.80;;;;;;10527441;28;20713;-73
2023/07/13 04:45:03;;;;;;;5.23;3.00;;;22.20;47.80;;;;;;10526955;27;20298;-73
2023/07/13 04:50:07;;;;;;;4.10;3.07;;;22.10;48.00;;;;;;10529539;27;20227;-72
2023/07/13 04:55:12;;;;;;;3.57;2.50;;;22.10;48.10;;;;;;10528439;27;20229;-73
2023/07/13 05:00:16;;;;;;;4.53;3.00;;;22.10;48.00;;;;;;10528236;27;20267;-73
2023/07/13 05:05:19;;;;;;;5.77;2.60;;;22.10;47.90;;;;;;10524788;28;20461;-73
2023/07/13 05:10:24;;;;;;;2.83;2.40;;;22.00;47.50;;;;;;10540092;27;20307;-74
2023/07/13 05:15:28;;;;;;;5.60;2.77;;;22.10;47.70;;;;;;10535589;27;20253;-74
2023/07/13 05:20:31;;;;;;;6.17;2.80;;;22.00;47.40;;;;;;10540036;27;20656;-73
2023/07/13 05:25:35;;;;;;;3.17;2.67;;;22.10;47.50;;;;;;10530491;28;20222;-74
2023/07/13 05:30:39;;;;;;;4.60;2.90;;;22.10;47.20;;;;;;10529811;28;20215;-74
2023/07/13 05:35:42;;;;;;;3.50;2.30;;;22.10;47.10;;;;;;10531866;27;20265;-70
2023/07/13 05:40:47;;;;;;;2.33;2.23;;;22.10;46.70;;;;;;10538280;27;20231;-70
2023/07/13 05:45:52;;;;;;;4.27;2.53;;;22.10;46.80;;;;;;10530364;27;20220;-70
2023/07/13 05:50:55;;;;;;;3.40;2.47;;;22.10;46.40;;;;;;10537897;28;20238;-70
2023/07/13 05:56:00;;;;;;;5.10;2.40;;;22.10;46.60;;;;;;10536245;27;20226;-70
2023/07/13 06:01:06;;;;;;;3.00;2.17;;;22.10;46.10;;;;;;10536078;28;20247;-71
2023/07/13 06:06:11;;;;;;;4.47;2.50;;;22.10;46.00;;;;;;10523133;27;20278;-70
2023/07/13 06:11:21;;;;;;;2.63;2.27;;;22.20;46.10;;;;;;10528946;27;20227;-70
2023/07/13 06:16:24;;;;;;;3.80;2.27;;;22.20;45.90;;;;;;10527799;27;20674;-70
2023/07/13 06:21:28;;;;;;;2.70;2.20;;;22.20;46.10;;;;;;10526269;27;20733;-70
2023/07/13 06:26:32;;;;;;;2.70;2.50;;;22.30;45.90;;;;;;10520827;27;20581;-70
2023/07/13 06:31:36;;;;;;;2.60;1.90;;;22.30;45.10;;;;;;10522614;28;20232;-70
2023/07/13 06:36:39;;;;;;;2.43;2.10;;;22.40;44.70;;;;;;10527814;27;20703;-70
2023/07/13 06:41:44;;;;;;;5.37;2.43;;;22.50;44.70;;;;;;10531552;27;20227;-70
2023/07/13 06:46:47;;;;;;;3.33;2.00;;;22.50;44.10;;;;;;10518965;28;20775;-70
2023/07/13 06:51:50;;;;;;;2.23;2.03;;;22.60;44.30;;;;;;10521663;27;20235;-70
2023/07/13 06:56:54;;;;;;;2.10;1.90;;;22.60;44.00;;;;;;10521796;27;20272;-70
2023/07/13 07:01:58;;;;;;;3.97;1.93;;;22.60;43.00;;;;;;10532957;27;20234;-70
2023/07/13 07:07:01;;;;;;;1.80;1.70;;;22.80;43.70;;;;;;10524729;27;20313;-70
2023/07/13 07:12:06;;;;;;;3.60;1.93;;;22.80;43.30;;;;;;10520872;28;20284;-67
2023/07/13 07:17:10;;;;;;;2.00;1.80;;;22.90;42.50;;;;;;10521080;27;20246;-67
2023/07/13 07:22:13;;;;;;;3.37;2.03;;;23.10;42.40;;;;;;10525508;27;20231;-67
2023/07/13 07:27:18;;;;;;;2.83;1.80;;;23.20;42.50;;;;;;10523749;27;20224;-67
2023/07/13 07:32:24;;;;;;;2.17;1.77;;;23.30;41.20;;;;;;10518778;28;20227;-67
2023/07/13 07:37:30;;;;;;;2.80;1.80;;;23.40;40.80;;;;;;10519083;27;20731;-67
2023/07/13 07:42:37;;;;;;;2.70;1.60;;;23.50;41.00;;;;;;10517287;28;20600;-67
2023/07/13 07:47:41;;;;;;;3.40;2.00;;;23.50;40.40;;;;;;10523173;27;20227;-72
2023/07/13 07:52:44;;;;;;;3.27;1.90;;;23.50;40.20;;;;;;10520886;28;20227;-72
2023/07/13 07:57:49;;;;;;;4.37;2.00;;;23.50;40.60;;;;;;10522104;27;20224;-72
2023/07/13 08:02:55;;;;;;;4.47;2.50;;;23.60;40.10;;;;;;10518146;27;20222;-72
2023/07/13 08:08:18;;;;;;;2.33;2.13;;;23.80;40.30;;;;;;10516360;27;20839;-72
2023/07/13 08:13:23;;;;;;;1.90;1.80;;;23.80;40.40;;;;;;10521145;27;20889;-72
2023/07/13 08:18:27;;;;;;;3.27;2.10;;;23.90;39.90;;;;;;10519387;27;20231;-70
2023/07/13 08:23:32;;;;;;;4.23;2.20;;;23.90;40.40;;;;;;10521682;27;20229;-74
2023/07/13 08:28:37;;;;;;;2.57;2.00;;;24.00;40.90;;;;;;10521288;28;20730;-72
2023/07/13 08:33:40;;;;;;;2.57;2.03;;;24.00;40.00;;;;;;10518229;27;20224;-72
2023/07/13 08:38:44;;;;;;;1.80;1.70;;;24.10;40.90;;;;;;10521322;27;20222;-72
2023/07/13 08:43:52;;;;;;;3.23;1.70;;;24.20;40.20;;;;;;10518637;28;20258;-74
2023/07/13 08:48:57;;;;;;;2.60;1.77;;;24.30;38.20;;;;;;10520180;27;20223;-74
2023/07/13 08:54:05;;;;;;;1.90;1.50;;;24.50;36.70;;;;;;10518177;28;20686;-72
2023/07/13 08:59:16;;;;;;;2.00;1.50;;;24.70;36.10;;;;;;10523806;27;20229;-73
2023/07/13 09:04:23;;;;;;;2.00;1.80;;;24.80;35.40;;;;;;10515720;27;20305;-72
2023/07/13 09:09:39;;;;;;;2.87;1.33;;;24.90;37.20;;;;;;10518682;27;20264;-71
2023/07/13 09:14:48;;;;;;;2.53;1.63;;;25.10;33.90;;;;;;10517558;27;20242;-71
2023/07/13 09:19:57;;;;;;;1.60;1.50;;;25.20;34.10;;;;;;10512855;27;20232;-71
2023/07/13 09:25:06;;;;;;;2.33;1.70;;;25.30;33.30;;;;;;10516017;28;20306;-70
2023/07/13 09:30:38;;;;;;;3.70;1.47;;;25.40;34.30;;;;;;10514642;28;20318;-68
2023/07/13 09:35:41;;;;;;;2.43;1.50;;;25.60;32.90;;;;;;10523482;28;20244;-70
2023/07/13 09:40:59;;;;;;;3.13;1.87;;;25.70;33.90;;;;;;10522176;27;20296;-69
2023/07/13 09:46:04;;;;;;;2.17;1.50;;;25.80;30.30;;;;;;10508327;27;20234;-72
2023/07/13 09:51:16;;;;;;;1.80;1.70;;;25.90;32.40;;;;;;10522398;27;20223;-72
2023/07/13 09:56:23;;;;;;;2.37;1.70;;;25.90;28.70;;;;;;10518996;27;20224;-73
2023/07/13 10:01:36;;;;;;;1.70;1.60;;;25.90;31.90;;;;;;10525137;28;20330;-73
2023/07/13 10:06:42;;;;;;;2.20;1.70;;;26.00;29.20;;;;;;10520594;27;20228;-70
2023/07/13 10:11:46;;;;;;;2.37;1.57;;;26.10;32.60;;;;;;10525303;28;20232;-69
2023/07/13 10:16:54;;;;;;;1.40;1.30;;;26.20;32.50;;;;;;10528284;27;20227;-69
2023/07/13 10:21:59;;;;;;;1.57;1.40;;;26.30;30.80;;;;;;10520222;27;20228;-69
2023/07/13 10:27:11;;;;;;;1.93;1.60;;;26.40;31.00;;;;;;10519745;28;20226;-73
2023/07/13 10:32:15;;;;;;;2.87;1.43;;;26.50;30.30;;;;;;10519985;27;20231;-73
2023/07/13 10:37:22;;;;;;;1.73;1.50;;;26.70;29.60;;;;;;10518739;28;20910;-67
2023/07/13 10:42:47;;;;;;;3.67;1.57;;;26.70;29.50;;;;;;10521804;27;20314;-66
2023/07/13 10:47:55;;;;;;;1.50;1.40;;;26.70;27.80;;;;;;10522782;28;20238;-66
2023/07/13 10:53:04;;;;;;;2.83;1.73;;;26.70;28.40;;;;;;10525947;27;20224;-66
2023/07/13 10:58:19;;;;;;;1.80;1.43;;;26.70;28.00;;;;;;10524562;28;20238;-67
2023/07/13 11:03:25;;;;;;;2.90;1.80;;;26.70;27.90;;;;;;10515677;27;20321;-66
2023/07/13 11:08:37;;;;;;;3.63;1.80;;;26.70;29.60;;;;;;10519563;27;20314;-73
2023/07/13 11:14:00;;;;;;;2.13;1.60;;;26.80;29.40;;;;;;10524894;27;20222;-73
2023/07/13 11:19:40;;;;;;;1.70;1.57;;;26.90;29.10;;;;;;10514020;28;20780;-69
2023/07/13 11:24:57;;;;;;;2.13;1.60;;;27.00;26.20;;;;;;10518920;27;21051;-69
2023/07/13 11:30:10;;;;;;;1.60;1.50;;;27.10;27.00;;;;;;10520503;27;20223;-72
2023/07/13 11:35:22;;;;;;;3.10;1.70;;;27.10;27.00;;;;;;10524276;27;20304;-72
2023/07/13 11:40:30;;;;;;;2.30;1.70;;;27.10;28.10;;;;;;10521239;28;20774;-72
2023/07/13 11:45:33;;;;;;;4.60;1.60;;;27.30;28.00;;;;;;10518334;27;20219;-71
2023/07/13 11:50:57;;;;;;;1.67;1.57;;;27.40;28.20;;;;;;10514974;28;20227;-71
2023/07/13 11:56:02;;;;;;;4.63;1.40;;;27.50;25.80;;;;;;10517352;28;20306;-71
2023/07/13 12:01:05;;;;;;;2.77;1.50;;;27.50;27.10;;;;;;10518305;27;20237;-71
2023/07/13 12:06:27;;;;;;;1.67;1.57;;;27.60;26.90;;;;;;10513154;27;20280;-71
2023/07/13 12:11:37;;;;;;;3.03;1.60;;;27.50;26.10;;;;;;10512591;27;20261;-73
2023/07/13 12:16:44;;;;;;;3.37;1.63;;;27.60;25.20;;;;;;10512567;27;20216;-69
2023/07/13 12:21:49;;;;;;;1.53;1.43;;;27.60;28.00;;;;;;10514690;27;20578;-69
2023/07/13 12:26:55;;;;;;;3.27;1.40;;;27.60;27.20;;;;;;10514101;27;20226;-73
2023/07/13 12:31:59;;;;;;;2.40;1.70;;;27.70;26.00;;;;;;10518181;27;20218;-73
2023/07/13 12:37:05;;;;;;;1.63;1.53;;;27.70;26.40;;;;;;10509316;27;20394;-72
2023/07/13 12:42:23;;;;;;;1.77;1.43;;;27.70;26.70;;;;;;10504558;28;20284;-66
2023/07/13 12:47:27;;;;;;;2.10;1.50;;;27.70;26.40;;;;;;10505346;28;20230;-66
2023/07/13 12:52:33;;;;;;;3.40;1.97;;;27.70;26.90;;;;;;10521392;27;20814;-66
2023/07/13 12:57:43;;;;;;;1.70;1.60;;;27.70;25.70;;;;;;10522020;27;20219;-67
2023/07/13 13:02:46;;;;;;;1.73;1.50;;;27.70;25.60;;;;;;10523185;28;20921;-71
2023/07/13 13:07:49;;;;;;;2.93;1.60;;;27.70;26.40;;;;;;10516171;28;20262;-71
2023/07/13 13:12:54;;;;;;;2.97;1.70;;;27.60;26.70;;;;;;10522607;27;20310;-72
2023/07/13 13:17:58;;;;;;;2.07;1.50;;;27.60;25.50;;;;;;10523155;27;20223;-72
2023/07/13 13:23:01;;;;;;;1.60;1.50;;;27.70;26.00;;;;;;10522459;27;20223;-70
2023/07/13 13:28:12;;;;;;;1.93;1.60;;;27.70;25.40;;;;;;10524273;28;20930;-69
2023/07/13 13:33:17;;;;;;;1.50;1.40;;;27.70;24.80;;;;;;10533205;27;20223;-67
2023/07/13 13:38:25;;;;;;;1.40;1.30;;;27.60;24.80;;;;;;10531804;28;20227;-66
2023/07/13 13:43:30;;;;;;;1.47;1.20;;;27.70;24.80;;;;;;10533523;27;20243;-67
2023/07/13 13:48:36;;;;;;;1.60;1.50;;;27.70;24.80;;;;;;10536402;28;20322;-69
2023/07/13 13:53:42;;;;;;;2.00;1.60;;;27.70;25.00;;;;;;10535316;28;20223;-69
2023/07/13 13:58:47;;;;;;;2.43;1.50;;;27.80;25.10;;;;;;10532547;27;20227;-70
2023/07/13 14:03:51;;;;;;;1.53;1.20;;;27.90;24.60;;;;;;10531470;28;20238;-70
2023/07/13 14:08:55;;;;;;;1.50;1.40;;;28.00;24.60;;;;;;10535278;27;20220;-70
2023/07/13 14:14:02;;;;;;;1.27;1.20;;;28.10;24.20;;;;;;10530828;28;20221;-70
2023/07/13 14:19:05;;;;;;;1.60;1.50;;;28.20;23.20;;;;;;10525079;27;20305;-70
2023/07/13 14:24:11;;;;;;;1.70;1.53;;;28.20;23.80;;;;;;10532055;27;20224;-74
2023/07/13 14:29:17;;;;;;;2.33;1.80;;;28.30;23.60;;;;;;10531544;27;20231;-67
2023/07/13 14:34:25;;;;;;;1.43;1.40;;;28.40;22.70;;;;;;10532107;27;20233;-67
2023/07/13 14:39:28;;;;;;;1.40;1.30;;;28.40;23.20;;;;;;10535022;27;20747;-72
2023/07/13 14:44:33;;;;;;;1.90;1.47;;;28.40;23.30;;;;;;10532044;28;20228;-71
2023/07/13 14:49:39;;;;;;;1.60;1.50;;;28.50;22.80;;;;;;10530647;27;20223;-72
2023/07/13 14:54:43;;;;;;;2.07;1.60;;;28.60;22.50;;;;;;10529237;27;20747;-72
2023/07/13 14:59:51;;;;;;;1.70;1.60;;;28.70;22.20;;;;;;10533248;28;20262;-72
2023/07/13 15:04:55;;;;;;;3.07;1.73;;;28.80;21.50;;;;;;10530847;27;20743;-71
2023/07/13 15:09:58;;;;;;;1.70;1.60;;;28.70;21.50;;;;;;10527852;28;20597;-71
2023/07/13 15:15:03;;;;;;;1.63;1.50;;;28.70;22.10;;;;;;10536185;27;20725;-71
2023/07/13 15:20:14;;;;;;;1.60;1.50;;;28.60;21.30;;;;;;10527907;27;21020;-71
2023/07/13 15:25:21;;;;;;;1.77;1.37;;;28.60;20.80;;;;;;10526933;28;20303;-71
2023/07/13 15:30:28;;;;;;;2.10;1.37;;;28.60;20.40;;;;;;10520919;28;20233;-72
2023/07/13 15:35:31;;;;;;;4.13;1.53;;;28.50;20.90;;;;;;10526581;27;20225;-67
2023/07/13 15:40:34;;;;;;;1.60;1.50;;;28.60;21.60;;;;;;10528033;28;20610;-67
2023/07/13 15:45:40;;;;;;;1.40;1.30;;;28.50;21.20;;;;;;10522537;27;20810;-67
2023/07/13 15:50:47;;;;;;;2.70;1.37;;;28.60;20.40;;;;;;10518428;27;20292;-67
2023/07/13 15:55:51;;;;;;;2.10;1.50;;;28.60;20.40;;;;;;10525484;27;20306;-67
2023/07/13 16:00:57;;;;;;;3.37;1.60;;;28.60;20.40;;;;;;10527097;28;20277;-67
2023/07/13 16:06:00;;;;;;;1.40;1.30;;;28.70;20.40;;;;;;10520995;27;20633;-68
2023/07/13 16:11:03;;;;;;;1.50;1.40;;;28.70;20.40;;;;;;10530605;27;20226;-67
2023/07/13 16:16:11;;;;;;;1.87;1.40;;;28.80;20.50;;;;;;10527438;27;20318;-67
2023/07/13 16:21:16;;;;;;;3.10;1.33;;;28.80;18.60;;;;;;10526363;28;20593;-67
2023/07/13 16:26:28;;;;;;;1.63;1.53;;;28.80;19.90;;;;;;10528857;28;20223;-74
2023/07/13 16:31:34;;;;;;;1.90;1.47;;;28.80;17.10;;;;;;10531218;27;20223;-74
2023/07/13 16:36:38;;;;;;;1.43;1.33;;;28.80;18.20;;;;;;10533551;27;20219;-72
2023/07/13 16:41:41;;;;;;;1.63;1.50;;;28.80;19.30;;;;;;10529203;27;20233;-72
2023/07/13 16:46:49;;;;;;;1.90;1.47;;;28.90;19.00;;;;;;10526846;27;20269;-72
2023/07/13 16:51:53;;;;;;;1.43;1.30;;;28.90;18.60;;;;;;10526424;28;20234;-67
2023/07/13 16:56:56;;;;;;;1.80;1.50;;;29.00;18.70;;;;;;10535795;27;20254;-67
2023/07/13 17:02:03;;;;;;;2.17;1.30;;;29.10;18.70;;;;;;10528429;27;20239;-67
2023/07/13 17:07:10;;;;;;;1.40;1.30;;;29.10;17.60;;;;;;10528159;27;20231;-69
2023/07/13 17:12:13;;;;;;;3.13;1.50;;;29.10;17.00;;;;;;10527215;27;20227;-73
2023/07/13 17:17:23;;;;;;;1.40;1.30;;;29.10;17.50;;;;;;10528483;27;20334;-73
2023/07/13 17:22:27;;;;;;;1.53;1.23;;;29.00;16.50;;;;;;10530455;27;20255;-67
2023/07/13 17:27:32;;;;;;;1.33;1.23;;;29.00;17.50;;;;;;10525230;28;20223;-70
2023/07/13 17:32:37;;;;;;;1.40;1.30;;;28.90;17.80;;;;;;10533056;27;20227;-70
2023/07/13 17:37:40;;;;;;;3.50;1.50;;;28.80;17.30;;;;;;10533407;27;20695;-73
2023/07/13 17:42:43;;;;;;;1.83;1.30;;;28.80;17.80;;;;;;10527241;28;20228;-73
2023/07/13 17:47:49;;;;;;;1.77;1.40;;;28.80;17.50;;;;;;10524137;27;21123;-73
2023/07/13 17:52:52;;;;;;;1.90;1.37;;;28.70;17.00;;;;;;10522620;27;20780;-73
2023/07/13 17:57:56;;;;;;;1.67;1.30;;;28.60;17.70;;;;;;10526134;28;20566;-73
2023/07/13 18:03:04;;;;;;;4.83;1.50;;;28.60;17.90;;;;;;10531010;27;20313;-73
2023/07/13 18:08:20;;;;;;;2.63;1.40;;;28.60;17.50;;;;;;10526527;28;20306;-73
2023/07/13 18:13:25;;;;;;;1.63;1.23;;;28.50;17.10;;;;;;10529109;28;20233;-73
2023/07/13 18:18:31;;;;;;;1.30;1.20;;;28.50;18.10;;;;;;10540979;27;20309;-73
2023/07/13 18:23:35;;;;;;;1.40;1.30;;;28.40;18.40;;;;;;10535085;27;20231;-72
2023/07/13 18:28:39;;;;;;;2.17;1.50;;;28.40;19.00;;;;;;10533527;28;20238;-73
2023/07/13 18:33:45;;;;;;;1.40;1.30;;;28.30;19.20;;;;;;10532113;28;20230;-74
2023/07/13 18:38:49;;;;;;;1.53;1.30;;;28.20;19.50;;;;;;10531390;28;20277;-75
2023/07/13 18:43:52;;;;;;;2.67;1.60;;;28.20;19.70;;;;;;10534562;28;20259;-74
2023/07/13 18:48:57;;;;;;;2.60;1.30;;;28.10;19.80;;;;;;10529985;28;20277;-75
2023/07/13 18:54:00;;;;;;;4.43;1.70;;;28.00;20.10;;;;;;10531641;28;20223;-75
2023/07/13 18:59:03;;;;;;;2.37;1.50;;;27.90;20.00;;;;;;10532843;27;20821;-74
2023/07/13 19:04:28;;;;;;;1.47;1.37;;;27.70;19.90;;;;;;10526001;27;20604;-75
2023/07/13 19:09:33;;;;;;;4.87;1.80;;;27.50;19.80;;;;;;10526703;28;20235;-75
2023/07/13 19:14:36;;;;;;;2.13;1.40;;;27.40;20.00;;;;;;10529573;27;20243;-75
2023/07/13 19:19:40;;;;;;;1.93;1.40;;;27.20;20.40;;;;;;10529852;28;20300;-71
2023/07/13 19:24:44;;;;;;;2.43;1.60;;;27.10;20.90;;;;;;10534945;27;20728;-71
2023/07/13 19:29:47;;;;;;;1.97;1.60;;;27.00;20.90;;;;;;10538786;27;21008;-71
2023/07/13 19:34:54;;;;;;;4.30;1.60;;;26.90;20.90;;;;;;10528149;28;20598;-71
2023/07/13 19:39:57;;;;;;;1.97;1.80;;;26.70;21.00;;;;;;10529774;27;20227;-71
2023/07/13 19:45:01;;;;;;;4.13;1.90;;;26.60;21.50;;;;;;10527015;27;20211;-71
2023/07/13 19:50:09;;;;;;;2.70;1.67;;;26.30;21.70;;;;;;10526547;27;20215;-71
2023/07/13 19:55:15;;;;;;;2.77;1.67;;;25.90;22.30;;;;;;10532225;27;20287;-71
2023/07/13 20:00:21;;;;;;;1.90;1.70;;;25.50;22.70;;;;;;10526717;28;20320;-71
2023/07/13 20:05:26;;;;;;;1.77;1.33;;;25.10;23.40;;;;;;10533619;28;20594;-71
2023/07/13 20:10:32;;;;;;;2.90;1.70;;;24.70;23.90;;;;;;10527264;27;20288;-71
2023/07/13 20:15:35;;;;;;;2.10;1.47;;;24.50;24.00;;;;;;10525450;27;20234;-71
2023/07/13 20:20:45;;;;;;;2.20;1.80;;;24.40;24.30;;;;;;10532017;27;20231;-71
2023/07/13 20:25:50;;;;;;;2.03;1.83;;;24.40;25.10;;;;;;10524303;27;20882;-71
2023/07/13 20:30:55;;;;;;;2.17;1.70;;;24.40;24.70;;;;;;10527764;27;20236;-71
2023/07/13 20:36:04;;;;;;;3.30;1.60;;;24.30;24.90;;;;;;10529626;28;21730;-71
2023/07/13 20:41:10;;;;;;;2.93;1.70;;;24.30;26.60;;;;;;10520032;27;20227;-71
2023/07/13 20:46:17;;;;;;;1.70;1.60;;;24.30;25.90;;;;;;10516611;28;20314;-71
2023/07/13 20:51:23;;;;;;;2.70;1.60;;;24.40;26.10;;;;;;10516689;28;20230;-71
2023/07/13 20:56:29;;;;;;;1.90;1.63;;;24.40;26.30;;;;;;10518569;27;21001;-71
2023/07/13 21:01:34;;;;;;;2.90;1.50;;;24.50;26.40;;;;;;10516019;27;20747;-71
2023/07/13 21:06:39;;;;;;;1.67;1.57;;;24.50;26.00;;;;;;10518047;28;20273;-71
2023/07/13 21:11:42;;;;;;;2.07;1.80;;;24.50;26.50;;;;;;10524958;27;20238;-71
2023/07/13 21:16:45;;;;;;;1.93;1.53;;;24.50;26.20;;;;;;10526096;27;20233;-74
2023/07/13 21:21:50;;;;;;;3.87;2.13;;;24.50;26.30;;;;;;10517444;28;20241;-74
2023/07/13 21:26:53;;;;;;;3.00;1.70;;;24.60;27.20;;;;;;10527934;27;20746;-74
2023/07/13 21:31:56;;;;;;;3.53;2.20;;;24.60;27.00;;;;;;10518467;27;20246;-74
2023/07/13 21:37:00;;;;;;;2.63;1.77;;;24.60;27.00;;;;;;10516661;28;20219;-74
2023/07/13 21:42:04;;;;;;;1.60;1.50;;;24.50;27.30;;;;;;10517572;27;20215;-74
2023/07/13 21:47:09;;;;;;;2.00;1.90;;;24.50;27.10;;;;;;10527733;27;20216;-74
2023/07/13 21:52:17;;;;;;;3.00;2.00;;;24.50;27.60;;;;;;10519051;28;20224;-74
2023/07/13 21:57:20;;;;;;;4.10;2.20;;;24.50;28.40;;;;;;10526094;27;20606;-74
2023/07/13 22:02:24;;;;;;;2.67;1.93;;;24.50;27.30;;;;;;10528833;27;20227;-74
2023/07/13 22:07:28;;;;;;;4.30;2.17;;;24.40;27.30;;;;;;10530730;27;20223;-74
2023/07/13 22:12:31;;;;;;;2.27;2.07;;;24.40;27.80;;;;;;10524453;27;20707;-71
2023/07/13 22:17:35;;;;;;;3.60;1.93;;;24.30;27.80;;;;;;10520904;27;20868;-71
2023/07/13 22:22:39;;;;;;;3.27;2.00;;;24.30;28.20;;;;;;10534382;27;20228;-71
2023/07/13 22:27:44;;;;;;;2.67;2.03;;;24.30;28.20;;;;;;10524310;28;20883;-71
2023/07/13 22:32:48;;;;;;;3.77;2.10;;;24.30;28.20;;;;;;10527129;27;21003;-71
2023/07/13 22:37:58;;;;;;;1.87;1.63;;;24.30;28.20;;;;;;10526971;28;20753;-71
2023/07/13 22:43:02;;;;;;;2.20;2.00;;;24.20;28.20;;;;;;10522582;27;20220;-71
2023/07/13 22:48:05;;;;;;;2.33;2.10;;;24.10;28.10;;;;;;10526195;28;20223;-71
2023/07/13 22:53:13;;;;;;;1.83;1.73;;;24.00;28.00;;;;;;10521453;27;20234;-71
2023/07/13 22:58:16;;;;;;;4.10;2.00;;;23.90;28.40;;;;;;10525197;27;20229;-71
2023/07/13 23:03:19;;;;;;;2.80;2.13;;;23.80;27.90;;;;;;10525987;28;20234;-71
2023/07/13 23:08:24;;;;;;;2.27;2.07;;;23.80;28.10;;;;;;10518356;28;20224;-71
2023/07/13 23:13:28;;;;;;;2.27;2.07;;;23.70;28.50;;;;;;10522054;28;20600;-71
2023/07/13 23:18:31;;;;;;;2.30;2.00;;;23.60;27.80;;;;;;10529612;27;20991;-71
2023/07/13 23:23:35;;;;;;;2.83;2.10;;;23.50;28.00;;;;;;10526092;27;20726;-71
2023/07/13 23:28:39;;;;;;;3.63;2.13;;;23.20;29.10;;;;;;10521753;27;20237;-71
2023/07/13 23:33:42;;;;;;;3.03;1.80;;;22.90;29.10;;;;;;10518654;27;20219;-71
2023/07/13 23:38:47;;;;;;;1.80;1.70;;;22.80;29.40;;;;;;10518176;28;20330;-71
2023/07/13 23:43:50;;;;;;;2.63;2.00;;;22.70;30.00;;;;;;10524386;27;20227;-71
2023/07/13 23:49:00;;;;;;;2.43;1.80;;;22.60;29.80;;;;;;10518129;28;20602;-71
2023/07/13 23:54:11;;;;;;;3.00;1.93;;;22.70;30.70;;;;;;10520210;27;20230;-71
2023/07/13 23:59:15;;;;;;;2.80;1.80;;;22.70;30.90;;;;;;10519801;28;20242;-71
